• Join FlightAware (Why Join?)
  • Login
  • US Flag 
03:26PM EDT


 

Airport Tracker/Info


-or-


 

Live Flight TrackerFlight Track Log ✈ SKW5646 ✈ 22-Apr-2013 ✈ KSBA - KSFO

Flight Track Log - Related Links

Times and Time Zones

All times are in EDT time to prevent confusion due to time zone crossing. See the SKW5646 flight status page for this flight to view local times or setup timezone preferences in your user account.

Time Position Orientation Groundspeed Altitude Reporting Facility
EDT Latitude Longitude Course Direction KTS MPH feet Rate Location/Type
04:00PM 34.4239 -119.8117 105° East 155 178 1,200  Level Los Angeles Center
04:01PM 34.3933 -119.8422 220° Southwest 253 291 2,400 1,260 Climbing Los Angeles Center
04:02PM 34.3892 -119.9089 266° West 221 254 3,900 1,260 Climbing Los Angeles Center
04:03PM 34.5103 -120.0684 298° West  Level FlightAware Approximate
04:03PM 34.3858 -119.9761 267° West 202 232 5,100  Level Los Angeles Center
04:04PM 34.5613 -120.1280 321° Northwest  Level FlightAware Approximate
04:04PM 34.3775 -120.0617 263° West 212 244 6,900  Level Los Angeles Center
04:05PM 34.6184 -120.1805 328° Northwest  Level FlightAware Approximate
04:05PM 34.4081 -120.1186 303° West 209 241 8,400  Level Los Angeles Center
04:07PM 34.4967 -120.1819 330° Northwest 206 237 10,700 1,260 Climbing Oakland Center
04:08PM 34.5433 -120.2217 325° Northwest 206 237 12,000 1,200 Climbing Oakland Center
04:08PM 34.5519 -120.2314 317° Northwest 206 237 12,300 1,020 Climbing Los Angeles Center
04:09PM 34.5997 -120.2697 327° Northwest 212 244 13,400 1,140 Climbing Los Angeles Center
04:10PM 34.6592 -120.3183 326° Northwest 215 247 14,700 1,080 Climbing Los Angeles Center
04:11PM 34.7078 -120.3606 324° Northwest 216 249 15,700 960 Climbing Los Angeles Center
04:12PM 34.7567 -120.4031 324° Northwest 218 251 16,800 1,020 Climbing Los Angeles Center
04:13PM 34.8097 -120.4478 325° Northwest 217 250 17,900 960 Climbing Los Angeles Center
04:14PM 34.8542 -120.4858 325° Northwest 214 246 18,800 900 Climbing Los Angeles Center
04:15PM 34.9125 -120.5342 326° Northwest 213 245 19,800 840 Climbing Los Angeles Center
04:16PM 34.9625 -120.5778 324° Northwest 220 253 20,600 780 Climbing Los Angeles Center
04:17PM 35.0142 -120.6228 325° Northwest 227 261 21,500 840 Climbing Los Angeles Center
04:18PM 35.0650 -120.6669 325° Northwest 226 260 22,400 780 Climbing Los Angeles Center
04:20PM 35.1169 -120.7122 325° Northwest 230 265 23,200 720 Climbing Los Angeles Center
04:21PM 35.1789 -120.7633 326° Northwest 225 259 24,000 360 Climbing Los Angeles Center
04:22PM 35.2350 -120.8119 325° Northwest 246 283 24,000  Level Los Angeles Center
04:23PM 35.2928 -120.8628 324° Northwest 256 295 24,000  Level Los Angeles Center
04:24PM 35.3514 -120.9133 325° Northwest 257 296 24,000  Level Los Angeles Center
04:24PM 35.3822 -120.9414 323° Northwest 256 295 24,000  Level Oakland Center
04:25PM 35.4417 -120.9928 325° Northwest 261 300 24,000  Level Oakland Center
04:26PM 35.5133 -121.0547 325° Northwest 260 299 24,000  Level Oakland Center
04:27PM 35.5731 -121.1075 324° Northwest 262 302 24,000 -60 Level Oakland Center
04:28PM 35.6336 -121.1597 325° Northwest 264 304 23,900  Descending Oakland Center
04:29PM 35.6942 -121.2133 324° Northwest 265 305 24,000  Climbing Oakland Center
04:30PM 35.7525 -121.2675 323° Northwest 261 300 24,000  Level Oakland Center
04:31PM 35.8153 -121.3206 326° Northwest 273 314 24,000  Level Oakland Center
04:32PM 35.8767 -121.3731 325° Northwest 267 307 24,000  Level Oakland Center
04:33PM 35.9350 -121.4289 322° Northwest 265 305 24,000  Level Oakland Center
04:34PM 35.9969 -121.4817 325° Northwest 269 310 24,000  Level Oakland Center
04:35PM 36.0572 -121.5350 324° Northwest 266 306 24,000  Level Oakland Center
04:36PM 36.1292 -121.6008 324° Northwest 268 308 24,000 -60 Level Oakland Center
04:38PM 36.1914 -121.6511 327° Northwest 266 306 23,900 -540 Descending Oakland Center
04:39PM 36.2633 -121.6897 337° Northwest 277 319 22,900 -960 Descending Oakland Center
04:40PM 36.3425 -121.7286 338° Northwest 298 343 22,000 -1,020 Descending Oakland Center
04:40PM 36.4000 -121.7667 332° Northwest 288 331 21,100 -1,140 Descending Northern Cal TRACON
04:41PM 36.4833 -121.8000 342° North 291 335 20,000 -1,080 Descending Northern Cal TRACON
04:42PM 36.5500 -121.8333 338° Northwest 286 329 19,000 -1,080 Descending Northern Cal TRACON
04:43PM 36.6167 -121.8667 338° Northwest 286 329 17,900 -1,020 Descending Northern Cal TRACON
04:44PM 36.7000 -121.9167 334° Northwest 281 323 17,000 -1,020 Descending Northern Cal TRACON
04:45PM 36.7667 -121.9500 338° Northwest 287 330 15,900 -1,260 Descending Northern Cal TRACON
04:46PM 36.8500 -121.9833 342° North 301 346 14,500 -1,440 Descending Northern Cal TRACON
04:47PM 36.9167 -122.0333 329° Northwest 301 346 13,100 -1,380 Descending Northern Cal TRACON
04:48PM 36.9431 -122.0414 346° North 299 344 12,600 -1,200 Descending Oakland Center
04:49PM 37.0219 -122.0717 343° North 296 341 11,400 -1,260 Descending Oakland Center
04:50PM 37.1000 -122.0953 346° North 288 331 10,100 -1,260 Descending Oakland Center
04:51PM 37.1747 -122.1206 345° North 278 320 8,900 -1,320 Descending Oakland Center
04:52PM 37.2617 -122.1511 344° North 270 311 7,500 -1,320 Descending Oakland Center
04:53PM 37.3328 -122.1744 345° North 263 303 6,300 -1,320 Descending Oakland Center
04:54PM 37.4033 -122.1992 344° North 263 303 4,800 -1,260 Descending Oakland Center
04:55PM 37.4711 -122.2206 346° North 257 296 3,800 -840 Descending Oakland Center
04:56PM 37.5275 -122.2172 North 231 266 3,200 -600 Descending Oakland Center